createdAt,value
2017-04-05T00:00:00.892Z,0
2017-04-05T00:01:11.143Z,0
2017-04-05T00:02:21.395Z,0
2017-04-05T00:03:31.641Z,0
2017-04-05T00:04:41.894Z,0
2017-04-05T00:05:52.163Z,0
2017-04-05T00:07:02.419Z,0
2017-04-05T00:08:12.674Z,0
2017-04-05T00:09:22.927Z,0
2017-04-05T00:10:33.185Z,0
2017-04-05T00:11:43.441Z,0
2017-04-05T00:12:53.698Z,0
2017-04-05T00:14:03.960Z,0
2017-04-05T00:15:14.217Z,0
2017-04-05T00:16:24.477Z,0
2017-04-05T00:17:34.737Z,0
2017-04-05T00:18:44.996Z,0
2017-04-05T00:19:55.248Z,0
2017-04-05T00:21:05.503Z,0
2017-04-05T00:22:15.760Z,0
2017-04-05T00:23:26.020Z,0
2017-04-05T00:24:36.279Z,0
2017-04-05T00:25:46.533Z,0
2017-04-05T00:26:56.791Z,0
2017-04-05T00:28:07.051Z,0
2017-04-05T00:29:17.306Z,0
2017-04-05T00:30:27.243Z,0
2017-04-05T00:31:37.494Z,0
2017-04-05T00:32:47.750Z,0
2017-04-05T00:33:57.697Z,0
2017-04-05T00:35:07.955Z,0
2017-04-05T00:36:18.208Z,0
2017-04-05T00:37:28.508Z,0
2017-04-05T00:38:38.766Z,0
2017-04-05T00:39:49.023Z,0
2017-04-05T00:40:59.281Z,0
2017-04-05T00:42:09.536Z,0
2017-04-05T00:43:19.793Z,0
2017-04-05T00:44:30.040Z,0
2017-04-05T00:45:39.979Z,0
2017-04-05T00:46:49.924Z,0
2017-04-05T00:48:00.173Z,0
2017-04-05T00:49:10.431Z,0
2017-04-05T00:50:20.683Z,0
2017-04-05T00:51:30.627Z,0
2017-04-05T00:52:40.877Z,0
2017-04-05T00:53:50.811Z,0
2017-04-05T00:55:01.058Z,0
2017-04-05T00:56:10.992Z,0
2017-04-05T00:57:21.251Z,0
2017-04-05T00:58:31.505Z,0
2017-04-05T00:59:41.762Z,0
2017-04-05T01:00:52.018Z,0
2017-04-05T01:02:02.275Z,0
2017-04-05T01:03:12.533Z,0
2017-04-05T01:04:22.793Z,0
2017-04-05T01:05:33.052Z,0
2017-04-05T01:06:43.315Z,0
2017-04-05T01:07:53.570Z,0
2017-04-05T01:09:03.823Z,0
2017-04-05T01:10:14.089Z,0
2017-04-05T01:11:24.043Z,0
2017-04-05T01:12:34.300Z,0
2017-04-05T01:13:44.567Z,0
2017-04-05T01:14:54.821Z,0
2017-04-05T01:16:05.079Z,0
2017-04-05T01:17:15.018Z,0
2017-04-05T01:18:25.283Z,0
2017-04-05T01:19:35.538Z,0
2017-04-05T01:20:45.791Z,0
2017-04-05T01:21:56.045Z,0
2017-04-05T01:23:06.323Z,0
2017-04-05T01:24:16.573Z,0
2017-04-05T01:25:26.826Z,0
2017-04-05T01:26:37.082Z,0
2017-04-05T01:27:47.338Z,0
2017-04-05T01:28:57.595Z,0
2017-04-05T01:30:07.853Z,0
2017-04-05T01:31:18.117Z,0
2017-04-05T01:32:28.393Z,0
2017-04-05T01:33:38.646Z,0
2017-04-05T01:34:48.901Z,0
2017-04-05T01:35:59.165Z,0
2017-04-05T01:37:09.425Z,0
2017-04-05T01:38:19.676Z,0
2017-04-05T01:39:29.959Z,0
2017-04-05T01:40:40.213Z,0
2017-04-05T01:41:50.475Z,0
2017-04-05T01:43:00.732Z,0
2017-04-05T01:44:10.678Z,0
2017-04-05T01:45:20.626Z,0
2017-04-05T01:46:30.881Z,0
2017-04-05T01:47:41.135Z,0
2017-04-05T01:48:51.389Z,0
2017-04-05T01:50:01.646Z,0
2017-04-05T01:51:11.906Z,0
2017-04-05T01:52:21.854Z,0
2017-04-05T01:53:32.111Z,0
2017-04-05T01:54:42.046Z,0
2017-04-05T01:55:52.302Z,0
2017-04-05T01:57:02.240Z,0
2017-04-05T01:58:12.501Z,0
2017-04-05T01:59:22.749Z,0
2017-04-05T02:00:32.999Z,0
2017-04-05T02:01:43.263Z,0
2017-04-05T02:02:53.520Z,0
2017-04-05T02:04:03.772Z,0
2017-04-05T02:05:14.026Z,0
2017-04-05T02:06:24.276Z,0
2017-04-05T02:07:34.528Z,0
2017-04-05T02:08:44.788Z,0
2017-04-05T02:09:54.722Z,0
2017-04-05T02:11:04.983Z,0
2017-04-05T02:12:15.242Z,0
2017-04-05T02:13:25.494Z,0
2017-04-05T02:14:35.748Z,0
2017-04-05T02:15:45.687Z,0
2017-04-05T02:16:55.941Z,0
2017-04-05T02:18:06.199Z,0
2017-04-05T02:19:16.452Z,0
2017-04-05T02:20:26.707Z,0
2017-04-05T02:21:36.646Z,0
2017-04-05T02:22:46.896Z,0
2017-04-05T02:23:57.151Z,0
2017-04-05T02:25:07.404Z,0
2017-04-05T02:26:17.664Z,0
2017-04-05T02:27:27.914Z,0
2017-04-05T02:28:37.860Z,0
2017-04-05T02:29:47.810Z,0
2017-04-05T02:30:57.747Z,0
2017-04-05T02:32:07.694Z,0
2017-04-05T02:33:17.950Z,0
2017-04-05T02:34:28.202Z,0
2017-04-05T02:35:38.454Z,0
2017-04-05T02:36:48.711Z,0
2017-04-05T02:37:58.966Z,0
2017-04-05T02:39:09.217Z,0
2017-04-05T02:40:19.474Z,0
2017-04-05T02:41:29.732Z,0
2017-04-05T02:42:39.981Z,0
2017-04-05T02:43:50.238Z,0
2017-04-05T02:44:59.928Z,0
2017-04-05T02:46:10.179Z,0
2017-04-05T02:47:20.429Z,0
2017-04-05T02:48:30.688Z,0
2017-04-05T02:49:40.939Z,0
2017-04-05T02:50:50.894Z,0
2017-04-05T02:52:01.147Z,0
2017-04-05T02:53:11.400Z,0
2017-04-05T02:54:21.653Z,0
2017-04-05T02:55:31.909Z,0
2017-04-05T02:56:42.163Z,0
2017-04-05T02:57:52.102Z,0
2017-04-05T02:59:02.354Z,0
2017-04-05T03:00:12.296Z,0
2017-04-05T03:01:22.552Z,0
2017-04-05T03:02:32.812Z,0
2017-04-05T03:03:43.067Z,0
2017-04-05T03:04:53.321Z,0
2017-04-05T03:06:03.574Z,0
2017-04-05T03:07:13.522Z,0
2017-04-05T03:08:23.775Z,0
2017-04-05T03:09:34.028Z,0
2017-04-05T03:10:44.288Z,0
2017-04-05T03:11:54.537Z,0
2017-04-05T03:13:04.795Z,0
2017-04-05T03:14:15.051Z,0
2017-04-05T03:15:25.307Z,0
2017-04-05T03:16:35.560Z,0
2017-04-05T03:17:45.814Z,0
2017-04-05T03:18:56.064Z,0
2017-04-05T03:20:06.325Z,0
2017-04-05T03:21:16.577Z,0
2017-04-05T03:22:26.840Z,0
2017-04-05T03:23:37.092Z,0
2017-04-05T03:24:47.350Z,0
2017-04-05T03:25:57.601Z,0
2017-04-05T03:27:07.860Z,0
2017-04-05T03:28:18.109Z,0
2017-04-05T03:29:28.384Z,0
2017-04-05T03:30:38.638Z,0
2017-04-05T03:31:48.573Z,0
2017-04-05T03:32:58.820Z,0
2017-04-05T03:34:09.080Z,0
2017-04-05T03:35:19.338Z,0
2017-04-05T03:36:29.584Z,0
2017-04-05T03:37:39.831Z,0
2017-04-05T03:38:50.085Z,0
2017-04-05T03:40:00.337Z,0
2017-04-05T03:41:10.616Z,0
2017-04-05T03:42:20.871Z,0
2017-04-05T03:43:31.126Z,0
2017-04-05T03:44:41.376Z,0
2017-04-05T03:45:51.632Z,0
2017-04-05T03:47:01.579Z,0
2017-04-05T03:48:11.204Z,0
2017-04-05T03:49:21.455Z,0
2017-04-05T03:50:31.711Z,4
2017-04-05T03:51:41.967Z,4
2017-04-05T03:52:52.228Z,0
2017-04-05T03:54:02.477Z,4
2017-04-05T03:55:12.733Z,4
2017-04-05T03:56:22.675Z,4
2017-04-05T03:57:32.931Z,4
2017-04-05T03:58:42.869Z,8
2017-04-05T03:59:52.810Z,8
2017-04-05T04:01:02.751Z,8
2017-04-05T04:02:12.693Z,12
2017-04-05T04:03:22.635Z,8
2017-04-05T04:04:32.885Z,12
2017-04-05T04:05:43.142Z,16
2017-04-05T04:06:53.388Z,16
2017-04-05T04:08:03.328Z,24
2017-04-05T04:09:13.578Z,28
2017-04-05T04:10:23.213Z,32
2017-04-05T04:11:33.155Z,36
2017-04-05T04:12:43.408Z,44
2017-04-05T04:13:53.352Z,48
2017-04-05T04:15:03.601Z,52
2017-04-05T04:16:13.851Z,60
2017-04-05T04:17:23.790Z,68
2017-04-05T04:18:33.730Z,80
2017-04-05T04:19:43.977Z,92
2017-04-05T04:20:54.226Z,104
2017-04-05T04:22:04.479Z,112
2017-04-05T04:23:14.734Z,128
2017-04-05T04:24:24.671Z,140
2017-04-05T04:25:34.928Z,160
2017-04-05T04:26:45.178Z,176
2017-04-05T04:27:55.117Z,192
2017-04-05T04:29:05.384Z,212
2017-04-05T04:30:15.639Z,236
2017-04-05T04:31:25.927Z,256
2017-04-05T04:32:36.187Z,280
2017-04-05T04:33:46.132Z,304
2017-04-05T04:34:56.068Z,332
2017-04-05T04:36:06.323Z,356
2017-04-05T04:37:16.579Z,384
2017-04-05T04:38:26.836Z,412
2017-04-05T04:39:36.780Z,436
2017-04-05T04:40:47.032Z,468
2017-04-05T04:41:57.284Z,496
2017-04-05T04:43:07.531Z,524
2017-04-05T04:44:17.778Z,560
2017-04-05T04:45:28.028Z,600
2017-04-05T04:46:38.284Z,632
2017-04-05T04:47:48.537Z,668
2017-04-05T04:48:58.785Z,712
2017-04-05T04:50:09.036Z,744
2017-04-05T04:51:18.980Z,780
2017-04-05T04:52:29.245Z,816
2017-04-05T04:53:39.180Z,848
2017-04-05T04:54:49.435Z,884
2017-04-05T04:55:59.686Z,920
2017-04-05T04:57:09.944Z,956
2017-04-05T04:58:20.205Z,992
2017-04-05T04:59:30.153Z,1028
2017-04-05T05:00:40.408Z,1060
2017-04-05T05:01:50.355Z,1092
2017-04-05T05:03:00.612Z,1124
2017-04-05T05:04:10.872Z,1160
2017-04-05T05:05:21.142Z,1192
2017-04-05T05:06:30.783Z,1224
2017-04-05T05:07:41.034Z,1260
2017-04-05T05:08:50.977Z,1292
2017-04-05T05:10:01.234Z,1324
2017-04-05T05:11:11.487Z,1360
2017-04-05T05:12:21.430Z,1388
2017-04-05T05:13:31.696Z,1420
2017-04-05T05:14:41.961Z,1452
2017-04-05T05:15:52.214Z,1480
2017-04-05T05:17:02.468Z,1508
2017-04-05T05:18:12.415Z,1524
2017-04-05T05:19:22.669Z,1564
2017-04-05T05:20:32.609Z,1592
2017-04-05T05:21:42.862Z,1616
2017-04-05T05:22:53.143Z,1640
2017-04-05T05:24:03.402Z,1660
2017-04-05T05:25:13.667Z,1660
2017-04-05T05:26:23.923Z,1672
2017-04-05T05:27:34.176Z,1680
2017-04-05T05:28:44.428Z,1696
2017-04-05T05:29:54.680Z,1684
2017-04-05T05:31:04.937Z,1712
2017-04-05T05:32:14.881Z,1736
2017-04-05T05:33:24.849Z,1748
2017-04-05T05:34:35.107Z,1756
2017-04-05T05:35:45.364Z,1764
2017-04-05T05:36:55.615Z,1772
2017-04-05T05:38:05.876Z,1784
2017-04-05T05:39:16.133Z,1792
2017-04-05T05:40:26.080Z,1804
2017-04-05T05:41:36.336Z,1696
2017-04-05T05:42:46.594Z,1692
2017-04-05T05:43:56.845Z,1720
2017-04-05T05:45:07.107Z,1860
2017-04-05T05:46:17.369Z,1940
2017-04-05T05:47:27.639Z,1980
2017-04-05T05:48:37.919Z,2004
2017-04-05T05:49:48.176Z,2060
2017-04-05T05:50:58.115Z,2084
2017-04-05T05:52:08.371Z,2096
2017-04-05T05:53:18.630Z,2112
2017-04-05T05:54:28.883Z,2128
2017-04-05T05:55:39.138Z,2148
2017-04-05T05:56:49.394Z,2152
2017-04-05T05:57:59.645Z,2244
2017-04-05T05:59:09.927Z,2280
2017-04-05T06:00:19.867Z,2248
2017-04-05T06:01:30.126Z,2216
2017-04-05T06:02:40.080Z,2088
2017-04-05T06:03:50.340Z,1996
2017-04-05T06:05:00.598Z,2108
2017-04-05T06:06:10.856Z,2012
2017-04-05T06:07:20.487Z,1948
2017-04-05T06:08:30.756Z,1916
2017-04-05T06:09:41.011Z,1804
2017-04-05T06:10:51.274Z,1772
2017-04-05T06:12:01.531Z,1780
2017-04-05T06:13:11.157Z,1792
2017-04-05T06:14:20.785Z,1808
2017-04-05T06:15:31.049Z,1836
2017-04-05T06:16:41.307Z,1864
2017-04-05T06:17:51.563Z,1900
2017-04-05T06:19:01.822Z,1940
2017-04-05T06:20:11.777Z,1980
2017-04-05T06:21:22.039Z,2040
2017-04-05T06:22:31.670Z,2084
2017-04-05T06:23:41.925Z,2124
2017-04-05T06:24:52.182Z,2188
2017-04-05T06:26:02.127Z,2300
2017-04-05T06:27:12.380Z,2308
2017-04-05T06:28:22.633Z,2440
2017-04-05T06:29:32.897Z,2448
2017-04-05T06:30:43.173Z,2444
2017-04-05T06:31:53.428Z,2356
2017-04-05T06:33:03.709Z,2372
2017-04-05T06:34:13.968Z,2276
2017-04-05T06:35:24.226Z,2320
2017-04-05T06:36:34.484Z,2420
2017-04-05T06:37:44.738Z,2532
2017-04-05T06:38:54.996Z,2636
2017-04-05T06:40:04.961Z,2980
2017-04-05T06:41:15.224Z,3092
2017-04-05T06:42:25.166Z,3556
2017-04-05T06:43:35.110Z,3864
2017-04-05T06:44:45.058Z,4008
2017-04-05T06:45:54.998Z,4096
2017-04-05T06:47:05.260Z,4156
2017-04-05T06:48:14.885Z,4128
2017-04-05T06:49:25.137Z,4132
2017-04-05T06:50:35.398Z,4120
2017-04-05T06:51:45.663Z,3992
2017-04-05T06:52:55.921Z,4080
2017-04-05T06:54:05.863Z,4336
2017-04-05T06:55:16.118Z,4320
2017-04-05T06:56:26.377Z,4532
2017-04-05T06:57:36.638Z,4428
2017-04-05T06:58:46.573Z,4152
2017-04-05T06:59:56.826Z,3836
2017-04-05T07:01:06.144Z,3352
2017-04-05T07:02:16.401Z,3100
2017-04-05T07:03:26.662Z,3016
2017-04-05T07:04:36.920Z,3056
2017-04-05T07:05:46.882Z,2852
2017-04-05T07:06:57.137Z,2816
2017-04-05T07:08:07.400Z,2808
2017-04-05T07:09:17.678Z,2628
2017-04-05T07:10:27.623Z,2576
2017-04-05T07:11:37.897Z,2624
2017-04-05T07:12:48.181Z,2652
2017-04-05T07:13:58.120Z,2640
2017-04-05T07:15:08.379Z,2604
2017-04-05T07:16:18.638Z,2548
2017-04-05T07:17:28.916Z,2496
2017-04-05T07:18:39.169Z,2452
2017-04-05T07:19:49.434Z,2416
2017-04-05T07:20:59.698Z,2448
2017-04-05T07:22:09.953Z,2512
2017-04-05T07:23:20.216Z,2596
2017-04-05T07:24:30.476Z,2688
2017-04-05T07:25:40.419Z,2868
2017-04-05T07:26:50.357Z,2840
2017-04-05T07:28:00.610Z,2872
2017-04-05T07:29:10.927Z,2976
2017-04-05T07:30:21.185Z,3012
2017-04-05T07:31:31.448Z,3056
2017-04-05T07:32:41.396Z,3140
2017-04-05T07:33:51.708Z,3152
2017-04-05T07:35:01.967Z,3148
2017-04-05T07:36:11.913Z,3316
2017-04-05T07:37:21.867Z,3316
2017-04-05T07:38:32.128Z,3276
2017-04-05T07:39:42.065Z,3352
2017-04-05T07:40:52.331Z,3380
2017-04-05T07:42:02.593Z,3356
2017-04-05T07:43:12.860Z,3320
2017-04-05T07:44:23.124Z,3300
2017-04-05T07:45:33.072Z,3280
2017-04-05T07:46:43.335Z,3260
2017-04-05T07:47:53.596Z,3256
2017-04-05T07:49:03.856Z,3256
2017-04-05T07:50:14.116Z,3256
2017-04-05T07:51:24.368Z,3260
2017-04-05T07:52:34.634Z,3256
2017-04-05T07:53:44.897Z,3248
2017-04-05T07:54:54.836Z,3244
2017-04-05T07:56:05.098Z,3244
2017-04-05T07:57:15.356Z,3248
2017-04-05T07:58:25.616Z,3256
2017-04-05T07:59:35.561Z,3256
2017-04-05T08:00:45.823Z,3260
2017-04-05T08:01:56.083Z,3268
2017-04-05T08:03:06.345Z,3268
2017-04-05T08:04:16.610Z,3272
2017-04-05T08:05:26.871Z,3280
2017-04-05T08:06:36.820Z,3288
2017-04-05T08:07:46.779Z,3296
2017-04-05T08:08:57.040Z,3312
2017-04-05T08:10:07.301Z,3320
2017-04-05T08:11:17.561Z,3332
2017-04-05T08:12:27.821Z,3340
2017-04-05T08:13:37.764Z,3348
2017-04-05T08:14:48.026Z,3356
2017-04-05T08:15:58.292Z,3360
2017-04-05T08:17:08.236Z,3376
2017-04-05T08:18:18.490Z,3384
2017-04-05T08:19:28.432Z,3392
2017-04-05T08:20:38.699Z,3404
2017-04-05T08:21:48.971Z,3420
2017-04-05T08:22:59.233Z,3436
2017-04-05T08:24:09.495Z,3464
2017-04-05T08:25:19.443Z,3480
2017-04-05T08:26:29.707Z,3520
2017-04-05T08:27:39.966Z,3556
2017-04-05T08:28:50.229Z,3596
2017-04-05T08:30:00.491Z,3644
2017-04-05T08:31:10.763Z,3708
2017-04-05T08:32:21.047Z,3792
2017-04-05T08:33:31.306Z,3900
2017-04-05T08:34:41.569Z,4036
2017-04-05T08:35:51.835Z,4180
2017-04-05T08:37:02.091Z,4304
2017-04-05T08:38:12.352Z,4408
2017-04-05T08:39:22.616Z,4504
2017-04-05T08:40:32.874Z,4580
2017-04-05T08:41:43.133Z,4688
2017-04-05T08:42:53.083Z,4696
2017-04-05T08:44:03.594Z,5340
2017-04-05T08:45:13.542Z,6108
2017-04-05T08:46:23.808Z,6184
2017-04-05T08:47:33.756Z,5544
2017-04-05T08:48:44.024Z,5212
2017-04-05T08:49:54.282Z,5212
2017-04-05T08:51:04.548Z,5428
2017-04-05T08:52:14.811Z,5576
2017-04-05T08:53:25.075Z,6080
2017-04-05T08:54:35.036Z,6876
2017-04-05T08:55:44.985Z,8364
2017-04-05T08:56:55.252Z,9484
2017-04-05T08:58:05.548Z,10644
2017-04-05T08:59:15.504Z,11688
2017-04-05T09:00:25.763Z,11632
2017-04-05T09:01:35.711Z,10852
2017-04-05T09:02:45.969Z,9516
2017-04-05T09:03:55.917Z,8048
2017-04-05T09:05:06.177Z,7032
2017-04-05T09:06:16.456Z,5916
2017-04-05T09:07:26.408Z,5180
2017-04-05T09:08:36.668Z,4652
2017-04-05T09:09:46.618Z,4348
2017-04-05T09:10:56.885Z,4104
2017-04-05T09:12:07.147Z,4068
2017-04-05T09:13:17.415Z,3960
2017-04-05T09:14:27.374Z,4292
2017-04-05T09:15:37.639Z,4704
2017-04-05T09:16:47.906Z,5032
2017-04-05T09:17:58.170Z,5296
2017-04-05T09:19:08.434Z,5528
2017-04-05T09:20:18.694Z,5992
2017-04-05T09:21:28.645Z,6620
2017-04-05T09:22:38.602Z,7432
2017-04-05T09:23:48.860Z,7888
2017-04-05T09:24:59.118Z,8952
2017-04-05T09:26:09.101Z,10024
2017-04-05T09:27:19.366Z,11012
2017-04-05T09:28:29.625Z,11616
2017-04-05T09:29:39.889Z,11556
2017-04-05T09:30:50.144Z,10684
2017-04-05T09:32:00.407Z,9460
2017-04-05T09:33:10.668Z,8136
2017-04-05T09:34:20.613Z,7492
2017-04-05T09:35:30.873Z,7392
2017-04-05T09:36:41.127Z,7760
2017-04-05T09:37:51.392Z,8300
2017-04-05T09:39:01.645Z,9676
2017-04-05T09:40:11.906Z,10356
2017-04-05T09:41:21.537Z,11080
2017-04-05T09:42:31.810Z,11624
2017-04-05T09:43:42.091Z,11964
2017-04-05T09:44:52.355Z,11280
2017-04-05T09:46:02.307Z,11448
2017-04-05T09:47:12.568Z,12676
2017-04-05T09:48:22.510Z,11912
2017-04-05T09:49:32.768Z,11032
2017-04-05T09:50:43.032Z,10920
2017-04-05T09:51:53.291Z,11800
2017-04-05T09:53:03.268Z,11908
2017-04-05T09:54:13.531Z,11780
2017-04-05T09:55:23.789Z,12360
2017-04-05T09:56:33.739Z,11356
2017-04-05T09:57:43.375Z,12364
2017-04-05T09:58:53.637Z,12176
2017-04-05T10:00:07.740Z,11612
2017-04-05T10:01:18.003Z,11128
2017-04-05T10:02:28.298Z,10724
2017-04-05T10:03:38.560Z,11356
2017-04-05T10:04:48.510Z,11536
2017-04-05T10:05:58.777Z,11472
2017-04-05T10:07:09.042Z,11592
2017-04-05T10:08:19.310Z,11216
2017-04-05T10:09:29.572Z,11388
2017-04-05T10:10:39.839Z,11384
2017-04-05T10:11:50.100Z,11468
2017-04-05T10:13:00.359Z,11200
2017-04-05T10:14:10.309Z,10928
2017-04-05T10:15:20.581Z,11416
2017-04-05T10:16:30.529Z,12792
2017-04-05T10:17:40.793Z,13760
2017-04-05T10:18:51.062Z,15008
2017-04-05T10:20:01.324Z,15036
2017-04-05T10:21:11.591Z,14188
2017-04-05T10:22:21.851Z,13792
2017-04-05T10:23:32.110Z,13672
2017-04-05T10:24:42.373Z,13464
2017-04-05T10:25:52.007Z,13076
2017-04-05T10:27:02.271Z,12868
2017-04-05T10:28:12.539Z,13260
2017-04-05T10:29:22.833Z,14108
2017-04-05T10:30:33.099Z,14720
2017-04-05T10:31:43.368Z,14956
2017-04-05T10:32:53.311Z,14988
2017-04-05T10:34:03.563Z,14800
2017-04-05T10:35:13.827Z,14700
2017-04-05T10:36:23.776Z,14428
2017-04-05T10:37:34.035Z,13812
2017-04-05T10:38:43.988Z,13088
2017-04-05T10:39:54.248Z,12552
2017-04-05T10:41:04.234Z,12128
2017-04-05T10:42:14.498Z,12252
2017-04-05T10:43:24.760Z,12604
2017-04-05T10:44:34.400Z,13136
2017-04-05T10:45:44.696Z,13844
2017-04-05T10:46:54.963Z,14528
2017-04-05T10:48:05.222Z,15236
2017-04-05T10:49:15.478Z,15684
2017-04-05T10:50:25.739Z,16224
2017-04-05T10:51:36.012Z,16288
2017-04-05T10:52:46.270Z,16320
2017-04-05T10:53:56.528Z,14704
2017-04-05T10:55:06.789Z,13088
2017-04-05T10:56:17.050Z,14004
2017-04-05T10:57:27.022Z,13112
2017-04-05T10:58:36.983Z,11616
2017-04-05T10:59:47.261Z,10920
2017-04-05T11:00:57.532Z,9608
2017-04-05T11:02:07.795Z,8536
2017-04-05T11:03:18.057Z,7580
2017-04-05T11:04:28.326Z,7184
2017-04-05T11:05:38.595Z,7868
2017-04-05T11:06:48.235Z,8188
2017-04-05T11:07:58.184Z,8744
2017-04-05T11:09:08.451Z,8724
2017-04-05T11:10:18.713Z,8676
2017-04-05T11:11:28.978Z,8404
2017-04-05T11:12:38.930Z,7948
2017-04-05T11:13:48.880Z,7292
2017-04-05T11:14:59.146Z,7060
2017-04-05T11:16:09.410Z,7432
2017-04-05T11:17:19.679Z,7892
2017-04-05T11:18:29.948Z,8396
2017-04-05T11:19:40.214Z,9304
2017-04-05T11:20:50.476Z,10448
2017-04-05T11:22:00.735Z,24704
2017-04-05T11:23:10.999Z,15000
2017-04-05T11:24:21.270Z,13156
2017-04-05T11:25:31.531Z,10832
2017-04-05T11:26:41.788Z,25120
2017-04-05T11:27:51.734Z,21152
2017-04-05T11:29:01.996Z,21440
2017-04-05T11:30:12.264Z,31616
2017-04-05T11:31:22.526Z,43744
2017-04-05T11:32:32.478Z,48608
2017-04-05T11:33:42.740Z,56224
2017-04-05T11:34:52.685Z,59712
2017-04-05T11:36:02.947Z,66112
2017-04-05T11:37:13.213Z,63072
2017-04-05T11:38:23.159Z,63520
2017-04-05T11:39:33.449Z,65120
2017-04-05T11:40:43.402Z,66944
2017-04-05T11:41:53.350Z,70656
2017-04-05T11:43:03.612Z,64160
2017-04-05T11:44:13.875Z,56640
2017-04-05T11:45:23.512Z,23072
2017-04-05T11:46:33.783Z,42976
2017-04-05T11:47:44.082Z,6516
2017-04-05T11:48:54.716Z,6172
2017-04-05T11:50:04.689Z,6152
2017-04-05T11:51:14.961Z,6588
2017-04-05T11:52:25.251Z,7520
2017-04-05T11:53:35.206Z,8848
2017-04-05T11:54:45.474Z,9700
2017-04-05T11:55:55.426Z,10232
2017-04-05T11:57:05.380Z,10608
2017-04-05T11:58:15.329Z,11404
2017-04-05T11:59:25.598Z,12500
2017-04-05T12:00:35.865Z,14168
2017-04-05T12:01:46.127Z,16672
2017-04-05T12:02:56.407Z,18976
2017-04-05T12:04:06.353Z,21248
2017-04-05T12:05:16.619Z,19424
2017-04-05T12:06:26.883Z,18656
2017-04-05T12:07:36.629Z,20992
2017-04-05T12:08:46.581Z,21888
2017-04-05T12:09:56.532Z,36480
2017-04-05T12:11:06.794Z,59392
2017-04-05T12:12:16.740Z,52224
2017-04-05T12:13:27.011Z,23872
2017-04-05T12:14:36.958Z,36544
2017-04-05T12:15:46.904Z,32352
2017-04-05T12:16:57.163Z,31552
2017-04-05T12:18:07.434Z,36288
2017-04-05T12:19:17.700Z,38144
2017-04-05T12:20:27.968Z,28128
2017-04-05T12:21:37.928Z,16512
2017-04-05T12:22:47.885Z,10232
2017-04-05T12:23:58.147Z,7960
2017-04-05T12:25:07.797Z,6940
2017-04-05T12:26:18.067Z,6348
2017-04-05T12:27:28.013Z,6408
2017-04-05T12:28:37.651Z,6136
2017-04-05T12:29:47.597Z,6416
2017-04-05T12:30:57.542Z,6668
2017-04-05T12:32:07.184Z,6972
2017-04-05T12:33:17.441Z,7208
2017-04-05T12:34:27.712Z,7280
2017-04-05T12:35:37.977Z,7332
2017-04-05T12:36:48.247Z,7264
2017-04-05T12:37:58.192Z,7184
2017-04-05T12:39:08.457Z,7112
2017-04-05T12:40:18.721Z,7048
2017-04-05T12:41:28.668Z,6960
2017-04-05T12:44:56.321Z,6804
2017-04-05T12:46:06.596Z,6904
2017-04-05T12:47:16.860Z,7028
2017-04-05T12:48:27.157Z,7192
2017-04-05T12:49:37.104Z,7420
2017-04-05T12:50:47.046Z,7724
2017-04-05T12:51:57.303Z,8104
2017-04-05T12:53:07.566Z,8596
2017-04-05T12:54:17.823Z,9084
2017-04-05T12:55:28.082Z,9540
2017-04-05T12:56:38.035Z,9928
2017-04-05T12:57:48.301Z,10248
2017-04-05T12:58:58.252Z,10528
2017-04-05T13:00:08.519Z,10772
2017-04-05T13:01:18.774Z,11000
2017-04-05T13:02:28.723Z,11204
2017-04-05T13:03:38.993Z,11352
2017-04-05T13:04:49.250Z,11472
2017-04-05T13:05:59.196Z,11568
2017-04-05T13:07:09.457Z,11780
2017-04-05T13:08:19.711Z,11848
2017-04-05T13:09:29.966Z,11916
2017-04-05T13:10:39.602Z,11924
2017-04-05T13:11:49.862Z,11916
2017-04-05T13:13:00.431Z,12004
2017-04-05T13:14:10.060Z,12064
2017-04-05T13:15:20.014Z,12196
2017-04-05T13:16:30.271Z,12444
2017-04-05T13:17:40.226Z,12384
2017-04-05T13:18:50.178Z,12348
2017-04-05T13:20:00.442Z,12452
2017-04-05T13:21:10.705Z,12656
2017-04-05T13:22:20.658Z,13012
2017-04-05T13:23:30.919Z,13200
2017-04-05T13:24:41.184Z,13456
2017-04-05T13:25:51.540Z,13708
2017-04-05T13:27:01.800Z,14004
2017-04-05T13:28:12.059Z,14556
2017-04-05T13:29:22.527Z,15920
2017-04-05T13:30:32.794Z,17568
2017-04-05T13:31:43.055Z,18464
2017-04-05T13:32:53.321Z,20064
2017-04-05T13:34:03.290Z,24224
2017-04-05T13:35:13.564Z,26016
2017-04-05T13:36:23.823Z,28384
2017-04-05T13:37:34.091Z,33472
2017-04-05T13:38:44.069Z,37696
2017-04-05T13:39:54.014Z,49472
2017-04-05T13:41:04.273Z,57888
2017-04-05T13:42:14.217Z,46784
2017-04-05T13:43:24.481Z,28672
2017-04-05T13:44:34.438Z,13804
2017-04-05T13:45:44.386Z,8460
2017-04-05T13:46:54.333Z,11472
2017-04-05T13:48:04.288Z,10444
2017-04-05T13:49:14.548Z,8648
2017-04-05T13:50:24.502Z,7824
2017-04-05T13:51:34.450Z,5928
2017-04-05T13:52:44.717Z,7488
2017-04-05T13:53:54.973Z,7724
2017-04-05T13:55:04.607Z,9464
2017-04-05T13:56:14.867Z,9932
2017-04-05T13:57:25.144Z,9524
2017-04-05T13:58:35.099Z,8072
2017-04-05T13:59:44.729Z,7304
2017-04-05T14:00:54.989Z,8028
2017-04-05T14:02:05.248Z,8148
2017-04-05T14:03:15.201Z,8220
2017-04-05T14:04:25.168Z,8076
2017-04-05T14:05:35.126Z,8160
2017-04-05T14:06:45.070Z,8516
2017-04-05T14:07:54.698Z,8864
2017-04-05T14:09:04.962Z,9908
2017-04-05T14:10:14.594Z,11240
2017-04-05T14:11:24.856Z,12248
2017-04-05T14:12:35.116Z,13280
2017-04-05T14:13:45.072Z,14472
2017-04-05T14:14:54.706Z,16288
2017-04-05T14:16:04.647Z,17600
2017-04-05T14:17:14.911Z,18112
2017-04-05T14:18:25.166Z,18176
2017-04-05T14:19:35.479Z,17536
2017-04-05T14:20:45.737Z,17088
2017-04-05T14:21:55.369Z,16992
2017-04-05T14:23:05.627Z,16960
2017-04-05T14:24:15.894Z,16736
2017-04-05T14:25:26.154Z,16512
2017-04-05T14:26:36.412Z,16832
2017-04-05T14:27:46.704Z,17312
2017-04-05T14:28:56.335Z,19296
2017-04-05T14:30:06.599Z,21664
2017-04-05T14:31:16.856Z,19584
2017-04-05T14:32:27.125Z,18464
2017-04-05T14:33:37.074Z,16672
2017-04-05T14:34:47.019Z,16640
2017-04-05T14:35:56.652Z,16416
2017-04-05T14:37:06.909Z,17088
2017-04-05T14:38:17.163Z,17632
2017-04-05T14:39:27.428Z,19968
2017-04-05T14:40:37.390Z,19936
2017-04-05T14:41:47.331Z,21408
2017-04-05T14:42:57.298Z,27776
2017-04-05T14:44:07.241Z,27232
2017-04-05T14:45:17.505Z,31360
2017-04-05T14:46:27.768Z,35424
2017-04-05T14:47:38.031Z,33920
2017-04-05T14:48:47.977Z,40064
2017-04-05T14:49:58.250Z,30016
2017-04-05T14:51:08.513Z,9672
2017-04-05T14:52:18.773Z,8804
2017-04-05T14:53:29.042Z,8028
2017-04-05T14:54:39.334Z,6400
2017-04-05T14:55:49.599Z,7864
2017-04-05T14:56:59.552Z,8648
2017-04-05T14:58:09.809Z,6212
2017-04-05T14:59:19.760Z,5788
2017-04-05T15:00:30.020Z,5360
2017-04-05T15:01:40.288Z,6012
2017-04-05T15:02:50.548Z,7200
2017-04-05T15:04:00.494Z,12452
2017-04-05T15:05:10.447Z,41568
2017-04-05T15:06:20.715Z,51008
2017-04-05T15:07:30.978Z,54592
2017-04-05T15:08:40.932Z,44160
2017-04-05T15:09:51.197Z,58336
2017-04-05T15:11:01.171Z,54816
2017-04-05T15:12:11.461Z,56640
2017-04-05T15:13:21.730Z,56672
2017-04-05T15:14:31.992Z,59040
2017-04-05T15:15:41.945Z,58688
2017-04-05T15:16:52.207Z,56864
2017-04-05T15:18:02.476Z,55456
2017-04-05T15:19:12.430Z,55040
2017-04-05T15:20:22.699Z,57056
2017-04-05T15:21:32.967Z,54752
2017-04-05T15:22:42.919Z,54624
2017-04-05T15:23:53.193Z,52512
2017-04-05T15:25:03.144Z,52064
2017-04-05T15:26:13.421Z,50464
2017-04-05T15:27:23.685Z,47104
2017-04-05T15:28:33.959Z,51872
2017-04-05T15:29:43.605Z,51456
2017-04-05T15:30:53.875Z,47520
2017-04-05T15:32:04.149Z,38144
2017-04-05T15:33:14.428Z,36320
2017-04-05T15:34:24.699Z,39648
2017-04-05T15:35:34.969Z,31648
2017-04-05T15:36:45.239Z,28672
2017-04-05T15:37:55.195Z,21920
2017-04-05T15:39:05.462Z,13428
2017-04-05T15:40:15.731Z,12828
2017-04-05T15:41:25.698Z,15296
2017-04-05T15:42:35.967Z,16960
2017-04-05T15:43:45.921Z,9608
2017-04-05T15:44:56.193Z,9880
2017-04-05T15:46:06.457Z,15088
2017-04-05T15:47:16.733Z,16288
2017-04-05T15:48:26.694Z,14060
2017-04-05T15:49:36.962Z,13276
2017-04-05T15:50:47.237Z,12568
2017-04-05T15:51:57.502Z,16480
2017-04-05T15:53:07.779Z,21408